Kanazawa, Japan
Current Conditions -  °F | °C
As of 10:00 PM on Tuesday 21 Oct 2014 (Local Time) from RJNK Reporting Station
Rain Showers Rain Showers  
Wind Chill: 64°   Ceiling: 600
Heat Index: 64°   Visibility: 3mi
Dew Point: 63°   Wind: 6mph
Humidity: 94%   Direction: 10°N
Pressure: 29.91"   Gusts: NA
Location:  36.56°N, 136.64°E
Report Text: RJNK 211300Z 01005KT 5000 -SHRA SCT003 BKN006 BKN015 18/17 Q1013
Loading
Personal Weather Stations






























Interactive Weather Map
Tropical Storm Tracking
New forecast layout! Learn more

10-Day Weather Forecast

Advertisements
Track Severe Weather on mobile